createdAt,value
2023-03-22T00:01:45.466Z,12.11
2023-03-22T00:05:45.561Z,11.96
2023-03-22T00:09:45.626Z,12.12
2023-03-22T00:13:45.739Z,12.35
2023-03-22T00:17:45.932Z,12.63
2023-03-22T00:21:45.956Z,12.67
2023-03-22T00:25:46.081Z,12.61
2023-03-22T00:29:46.266Z,12.53
2023-03-22T00:33:46.410Z,12.51
2023-03-22T00:37:46.506Z,12.37
2023-03-22T00:41:46.665Z,12.41
2023-03-22T00:45:46.869Z,12.30
2023-03-22T00:49:46.906Z,12.23
2023-03-22T00:53:47.007Z,12.18
2023-03-22T00:57:47.115Z,12.20
2023-03-22T01:01:47.242Z,11.91
2023-03-22T01:05:47.367Z,12.03
2023-03-22T01:09:47.425Z,12.22
2023-03-22T01:13:47.467Z,12.32
2023-03-22T01:17:47.654Z,12.09
2023-03-22T01:21:47.691Z,11.93
2023-03-22T01:25:47.759Z,12.08
2023-03-22T01:29:47.818Z,11.88
2023-03-22T01:33:47.975Z,11.73
2023-03-22T01:37:48.192Z,11.70
2023-03-22T01:41:48.402Z,11.67
2023-03-22T01:45:48.650Z,11.17
2023-03-22T01:49:48.660Z,10.89
2023-03-22T01:53:48.774Z,10.43
2023-03-22T01:57:48.859Z,10.51
2023-03-22T02:01:48.952Z,10.25
2023-03-22T02:05:49.110Z,10.47
2023-03-22T02:09:49.187Z,10.33
2023-03-22T02:13:49.292Z,10.21
2023-03-22T02:17:49.406Z,9.92
2023-03-22T02:21:49.510Z,10.02
2023-03-22T02:25:49.652Z,10.27
2023-03-22T02:29:49.834Z,10.19
2023-03-22T02:33:49.890Z,10.07
2023-03-22T02:37:50.063Z,10.33
2023-03-22T02:41:50.177Z,10.79
2023-03-22T02:45:50.317Z,10.72
2023-03-22T02:49:50.367Z,10.85
2023-03-22T02:53:50.447Z,10.65
2023-03-22T02:57:50.625Z,10.71
2023-03-22T03:01:50.746Z,10.78
2023-03-22T03:05:50.754Z,10.72
2023-03-22T03:09:50.886Z,10.76
2023-03-22T03:13:51.013Z,10.67
2023-03-22T03:17:51.138Z,10.72
2023-03-22T03:21:51.212Z,10.55
2023-03-22T03:25:51.326Z,10.25
2023-03-22T03:29:51.457Z,10.17
2023-03-22T03:33:51.577Z,10.37
2023-03-22T03:37:51.813Z,10.25
2023-03-22T03:41:51.784Z,10.30
2023-03-22T03:45:51.992Z,10.17
2023-03-22T03:49:51.996Z,10.39
2023-03-22T03:53:52.020Z,10.45
2023-03-22T03:57:52.173Z,10.62
2023-03-22T04:01:52.357Z,10.76
2023-03-22T04:05:52.429Z,10.68
2023-03-22T04:09:52.567Z,10.62
2023-03-22T04:13:52.652Z,10.71
2023-03-22T04:17:52.839Z,10.71
2023-03-22T04:21:53.033Z,10.71
2023-03-22T04:25:53.140Z,10.71
2023-03-22T04:29:53.274Z,10.68
2023-03-22T04:33:53.477Z,10.68
2023-03-22T04:37:53.613Z,10.68
2023-03-22T04:41:53.818Z,10.61
2023-03-22T04:45:53.931Z,10.31
2023-03-22T04:49:53.995Z,10.20
2023-03-22T04:53:54.108Z,10.00
2023-03-22T04:57:54.223Z,10.07
2023-03-22T05:01:54.470Z,10.23
2023-03-22T05:05:54.381Z,10.20
2023-03-22T05:09:54.547Z,10.19
2023-03-22T05:13:54.663Z,10.23
2023-03-22T05:17:54.799Z,10.23
2023-03-22T05:21:54.827Z,10.20
2023-03-22T05:25:54.869Z,10.07
2023-03-22T05:29:55.024Z,10.03
2023-03-22T05:33:55.104Z,10.07
2023-03-22T05:37:55.229Z,10.20
2023-03-22T05:41:55.841Z,10.27
2023-03-22T05:45:55.379Z,10.33
2023-03-22T05:49:55.477Z,10.34
2023-03-22T05:53:55.680Z,10.17
2023-03-22T05:57:55.836Z,10.20
2023-03-22T06:01:55.960Z,10.29
2023-03-22T06:05:56.148Z,10.41
2023-03-22T06:09:56.196Z,10.40
2023-03-22T06:13:56.405Z,10.62
2023-03-22T06:17:56.483Z,10.71
2023-03-22T06:21:56.581Z,10.81
2023-03-22T06:25:56.683Z,10.99
2023-03-22T06:29:56.795Z,11.10
2023-03-22T06:33:56.830Z,11.20
2023-03-22T06:37:56.947Z,11.47
2023-03-22T06:41:57.064Z,11.57
2023-03-22T06:45:57.324Z,11.67
2023-03-22T06:49:57.365Z,11.80
2023-03-22T06:53:57.481Z,11.93
2023-03-22T06:57:57.621Z,11.98
2023-03-22T07:01:57.669Z,12.19
2023-03-22T07:05:57.770Z,12.09
2023-03-22T07:09:57.888Z,11.74
2023-03-22T07:13:58.067Z,11.85
2023-03-22T07:17:58.145Z,11.99
2023-03-22T07:21:58.276Z,12.05
2023-03-22T07:25:58.340Z,12.41
2023-03-22T07:29:58.427Z,12.73
2023-03-22T07:33:58.497Z,13.11
2023-03-22T07:37:58.574Z,13.43
2023-03-22T07:41:58.715Z,13.85
2023-03-22T07:45:58.981Z,13.91
2023-03-22T07:49:59.367Z,14.02
2023-03-22T07:53:59.151Z,14.35
2023-03-22T07:57:59.253Z,14.84
2023-03-22T08:01:59.366Z,14.79
2023-03-22T08:05:59.453Z,15.20
2023-03-22T08:09:59.604Z,15.60
2023-03-22T08:13:59.659Z,15.69
2023-03-22T08:17:59.754Z,16.13
2023-03-22T08:21:59.857Z,16.17
2023-03-22T08:26:00.012Z,16.27
2023-03-22T08:30:00.030Z,16.58
2023-03-22T08:34:00.173Z,16.63
2023-03-22T08:38:00.215Z,16.50
2023-03-22T08:42:00.321Z,16.91
2023-03-22T08:46:00.441Z,17.10
2023-03-22T08:50:00.521Z,17.54
2023-03-22T08:54:00.627Z,17.73
2023-03-22T08:58:00.745Z,18.02
2023-03-22T09:02:01.046Z,18.11
2023-03-22T09:06:01.032Z,18.20
2023-03-22T09:10:01.186Z,18.61
2023-03-22T09:14:01.278Z,18.98
2023-03-22T09:18:01.360Z,19.20
2023-03-22T09:22:01.498Z,19.62
2023-03-22T09:26:01.617Z,19.79
2023-03-22T09:30:01.659Z,20.05
2023-03-22T09:34:01.855Z,20.37
2023-03-22T09:38:01.976Z,20.70
2023-03-22T09:42:02.185Z,20.32
2023-03-22T09:46:02.290Z,20.94
2023-03-22T09:50:02.378Z,20.57
2023-03-22T09:54:02.497Z,21.09
2023-03-22T09:58:02.624Z,21.53
2023-03-22T10:02:03.055Z,21.91
2023-03-22T10:06:02.906Z,21.47
2023-03-22T10:10:02.967Z,21.98
2023-03-22T10:14:03.085Z,22.15
2023-03-22T10:18:03.217Z,22.59
2023-03-22T10:22:03.352Z,22.86
2023-03-22T10:26:03.455Z,23.28
2023-03-22T10:30:03.613Z,22.89
2023-03-22T10:34:03.681Z,23.32
2023-03-22T10:38:03.720Z,23.83
2023-03-22T10:42:03.872Z,23.80
2023-03-22T10:46:04.043Z,23.97
2023-03-22T10:50:04.227Z,24.37
2023-03-22T10:54:04.260Z,24.50
2023-03-22T10:58:04.384Z,24.87
2023-03-22T11:02:04.626Z,25.14
2023-03-22T11:06:04.646Z,25.37
2023-03-22T11:10:04.852Z,26.09
2023-03-22T11:14:04.962Z,26.10
2023-03-22T11:18:05.089Z,26.26
2023-03-22T11:22:05.159Z,26.50
2023-03-22T11:26:05.317Z,27.02
2023-03-22T11:30:05.438Z,27.15
2023-03-22T11:34:05.505Z,27.01
2023-03-22T11:38:05.654Z,27.24
2023-03-22T11:42:05.767Z,27.42
2023-03-22T11:46:05.874Z,27.29
2023-03-22T11:50:06.891Z,27.22
2023-03-22T11:54:06.045Z,27.68
2023-03-22T11:58:06.134Z,28.11
2023-03-22T12:02:06.309Z,28.34
2023-03-22T12:06:06.493Z,28.60
2023-03-22T12:10:06.619Z,29.15
2023-03-22T12:14:06.651Z,29.33
2023-03-22T12:18:07.960Z,29.03
2023-03-22T12:22:06.886Z,28.97
2023-03-22T12:26:06.976Z,28.49
2023-03-22T12:30:07.106Z,27.92
2023-03-22T12:34:07.256Z,28.69
2023-03-22T12:38:07.311Z,29.05
2023-03-22T12:42:07.391Z,28.76
2023-03-22T12:46:07.505Z,28.76
2023-03-22T12:50:07.632Z,28.57
2023-03-22T12:54:07.716Z,28.94
2023-03-22T12:58:07.859Z,29.17
2023-03-22T13:02:08.020Z,29.26
2023-03-22T13:06:08.098Z,29.11
2023-03-22T13:10:08.207Z,29.22
2023-03-22T13:14:08.270Z,29.81
2023-03-22T13:18:08.453Z,30.10
2023-03-22T13:22:08.558Z,30.55
2023-03-22T13:26:08.631Z,30.62
2023-03-22T13:30:08.769Z,31.00
2023-03-22T13:34:08.922Z,31.21
2023-03-22T13:38:09.023Z,31.54
2023-03-22T13:42:09.065Z,31.47
2023-03-22T13:46:09.179Z,31.54
2023-03-22T13:50:09.198Z,31.71
2023-03-22T13:54:09.272Z,31.74
2023-03-22T13:58:09.402Z,31.74
2023-03-22T14:02:09.575Z,31.48
2023-03-22T14:06:09.665Z,31.57
2023-03-22T14:10:09.753Z,31.83
2023-03-22T14:14:09.838Z,32.00
2023-03-22T14:18:09.945Z,31.63
2023-03-22T14:47:10.276Z,31.97
2023-03-22T14:51:10.267Z,32.05
2023-03-22T14:55:10.208Z,31.95
2023-03-22T14:59:10.159Z,31.51
2023-03-22T15:03:11.506Z,31.60
2023-03-22T15:07:10.088Z,31.57
2023-03-22T15:11:11.527Z,31.01
2023-03-22T15:15:10.002Z,30.82
2023-03-22T15:19:10.350Z,30.63
2023-03-22T15:23:10.114Z,29.63
2023-03-22T15:27:10.327Z,29.75
2023-03-22T15:31:10.283Z,29.14
2023-03-22T15:35:10.364Z,29.36
2023-03-22T15:39:10.494Z,29.18
2023-03-22T15:43:10.606Z,28.93
2023-03-22T15:47:10.623Z,28.69
2023-03-22T15:51:10.764Z,28.69
2023-03-22T15:55:10.857Z,28.11
2023-03-22T15:59:10.987Z,28.09
2023-03-22T16:03:11.220Z,28.16
2023-03-22T16:07:11.274Z,27.87
2023-03-22T16:11:11.302Z,27.81
2023-03-22T16:15:11.464Z,27.71
2023-03-22T16:19:11.653Z,27.28
2023-03-22T16:23:11.685Z,26.77
2023-03-22T16:27:11.941Z,26.23
2023-03-22T16:31:12.149Z,26.15
2023-03-22T16:35:12.216Z,25.88
2023-03-22T16:39:12.417Z,25.44
2023-03-22T16:43:12.573Z,25.51
2023-03-22T16:47:12.750Z,25.19
2023-03-22T16:51:12.859Z,25.06
2023-03-22T16:55:12.965Z,25.10
2023-03-22T16:59:13.058Z,24.81
2023-03-22T17:03:13.229Z,24.55
2023-03-22T17:07:13.356Z,24.21
2023-03-22T17:11:13.444Z,23.87
2023-03-22T17:15:13.508Z,23.53
2023-03-22T17:19:13.686Z,23.37
2023-03-22T17:23:13.737Z,22.89
2023-03-22T17:27:13.862Z,22.79
2023-03-22T17:31:14.018Z,22.80
2023-03-22T17:35:14.158Z,22.58
2023-03-22T17:39:32.982Z,22.50
2023-03-22T17:43:15.247Z,22.52
2023-03-22T17:51:14.206Z,21.85
2023-03-22T17:55:19.650Z,21.32
2023-03-22T17:59:15.105Z,20.88
2023-03-22T18:03:14.089Z,20.25
2023-03-22T18:07:14.033Z,19.92
2023-03-22T18:11:14.065Z,19.22
2023-03-22T18:15:14.183Z,19.41
2023-03-22T18:19:14.321Z,19.05
2023-03-22T18:23:14.444Z,18.91
2023-03-22T18:27:15.860Z,18.95
2023-03-22T18:31:14.687Z,18.54
2023-03-22T18:35:14.830Z,18.44
2023-03-22T18:39:55.208Z,18.38
2023-03-22T18:43:15.855Z,18.23
2023-03-22T18:47:14.862Z,17.69
2023-03-22T18:51:14.818Z,17.27
2023-03-22T18:55:28.904Z,17.11
2023-03-22T18:59:15.859Z,17.23
2023-03-22T19:03:14.776Z,17.09
2023-03-22T19:07:19.960Z,16.78
2023-03-22T19:11:15.691Z,16.21
2023-03-22T19:19:14.653Z,16.34
2023-03-22T19:23:14.593Z,16.03
2023-03-22T19:27:18.339Z,15.86
2023-03-22T19:31:15.520Z,15.80
2023-03-22T19:35:14.486Z,15.72
2023-03-22T19:39:15.192Z,15.58
2023-03-22T19:43:14.548Z,15.46
2023-03-22T19:47:14.675Z,15.27
2023-03-22T19:51:14.799Z,15.25
2023-03-22T19:55:14.837Z,15.11
2023-03-22T19:59:16.981Z,14.72
2023-03-22T20:03:14.954Z,14.58
2023-03-22T20:07:14.918Z,14.22
2023-03-22T20:11:27.615Z,14.22
2023-03-22T20:15:15.822Z,14.40
2023-03-22T20:19:14.869Z,14.33
2023-03-22T20:23:14.770Z,14.17
2023-03-22T20:27:15.549Z,13.96
2023-03-22T20:31:14.899Z,14.00
2023-03-22T20:35:15.022Z,14.52
2023-03-22T20:39:15.095Z,14.40
2023-03-22T20:43:15.216Z,14.24
2023-03-22T20:47:15.341Z,14.39
2023-03-22T20:51:15.486Z,14.49
2023-03-22T20:55:15.653Z,14.76
2023-03-22T20:59:15.779Z,14.55
2023-03-22T21:03:15.839Z,14.37
2023-03-22T21:07:15.893Z,14.55
2023-03-22T21:11:15.997Z,14.69
2023-03-22T21:15:16.126Z,14.84
2023-03-22T21:19:16.926Z,14.83
2023-03-22T21:23:16.297Z,14.28
2023-03-22T21:27:16.439Z,13.88
2023-03-22T21:31:16.557Z,13.66
2023-03-22T21:35:16.603Z,13.80
2023-03-22T21:39:16.767Z,13.59
2023-03-22T21:43:16.821Z,13.36
2023-03-22T21:47:16.986Z,13.59
2023-03-22T21:51:17.079Z,13.71
2023-03-22T21:55:17.229Z,13.61
2023-03-22T21:59:17.310Z,13.67
2023-03-22T22:03:17.454Z,13.98
2023-03-22T22:07:17.574Z,13.77
2023-03-22T22:11:17.708Z,13.38
2023-03-22T22:15:17.833Z,13.47
2023-03-22T22:19:18.061Z,13.30
2023-03-22T22:23:18.063Z,13.49
2023-03-22T22:27:18.217Z,13.36
2023-03-22T22:31:18.404Z,13.36
2023-03-22T22:35:18.506Z,12.95
2023-03-22T22:39:18.658Z,12.88
2023-03-22T22:43:18.730Z,13.25
2023-03-22T22:47:18.865Z,13.25
2023-03-22T22:51:18.933Z,13.05
2023-03-22T22:55:19.100Z,12.84
2023-03-22T22:59:19.192Z,13.26
2023-03-22T23:03:19.291Z,13.57
2023-03-22T23:07:19.404Z,13.53
2023-03-22T23:11:19.479Z,13.46
2023-03-22T23:15:27.069Z,12.78
2023-03-22T23:19:20.601Z,12.74
2023-03-22T23:23:19.569Z,12.68
2023-03-22T23:27:19.508Z,12.57
2023-03-22T23:31:19.694Z,12.36
2023-03-22T23:35:19.806Z,11.88
2023-03-22T23:39:19.874Z,11.98
2023-03-22T23:43:19.969Z,12.36
2023-03-22T23:47:20.173Z,12.53
2023-03-22T23:51:20.282Z,12.60
2023-03-22T23:55:20.421Z,12.85
2023-03-22T23:59:20.572Z,13.12
